Time;durP1;ratioP1;P1;durP2;ratioP2;P2;SDS_P1;SDS_P2;PMS_P1;PMS_P2;Temp;Humidity;BMP_temperature;BMP_pressure;BME280_temperature;BME280_humidity;BME280_pressure;Samples;Min_cycle;Max_cycle;Signal;HPM_P1;HPM_P2
2020/03/11 00:02:14;;;;;;;0.95;0.95;;;;;;;19.88;40.30;100217.95;;;;-46
2020/03/11 00:05:14;;;;;;;0.89;0.89;;;;;;;19.87;40.25;100217.84;;;;-47
2020/03/11 00:08:14;;;;;;;0.91;0.87;;;;;;;19.86;40.34;100219.81;;;;-45
2020/03/11 00:11:14;;;;;;;1.10;1.00;;;;;;;19.84;40.30;100222.41;;;;-46
2020/03/11 00:14:14;;;;;;;0.87;0.87;;;;;;;19.83;40.36;100230.69;;;;-46
2020/03/11 00:17:14;;;;;;;0.80;0.80;;;;;;;19.81;40.35;100238.98;;;;-46
2020/03/11 00:20:14;;;;;;;1.45;0.83;;;;;;;19.80;40.39;100243.97;;;;-46
2020/03/11 00:23:14;;;;;;;0.89;0.89;;;;;;;19.79;40.34;100240.65;;;;-46
2020/03/11 00:29:14;;;;;;;0.80;0.80;;;;;;;19.76;40.37;100250.25;;;;-46
2020/03/11 00:32:14;;;;;;;0.69;0.69;;;;;;;19.75;40.42;100256.34;;;;-46
2020/03/11 00:35:14;;;;;;;0.75;0.75;;;;;;;19.73;40.43;100253.68;;;;-46
2020/03/11 00:38:20;;;;;;;0.87;0.87;;;;;;;19.72;40.40;100258.40;;;;-45
2020/03/11 00:41:14;;;;;;;0.84;0.84;;;;;;;19.71;40.41;100260.33;;;;-46
2020/03/11 00:44:14;;;;;;;0.73;0.73;;;;;;;19.70;40.38;100252.79;;;;-47
2020/03/11 00:47:14;;;;;;;0.82;0.82;;;;;;;19.69;40.37;100256.91;;;;-46
2020/03/11 00:50:14;;;;;;;0.86;0.86;;;;;;;19.68;40.42;100249.32;;;;-46
2020/03/11 00:53:14;;;;;;;0.79;0.79;;;;;;;19.66;40.38;100261.73;;;;-48
2020/03/11 00:56:14;;;;;;;0.87;0.87;;;;;;;19.65;40.42;100259.69;;;;-46
2020/03/11 00:59:14;;;;;;;0.81;0.81;;;;;;;19.64;40.43;100267.52;;;;-46
2020/03/11 01:02:14;;;;;;;0.93;0.93;;;;;;;19.62;40.44;100264.97;;;;-46
2020/03/11 01:05:14;;;;;;;0.81;0.81;;;;;;;19.61;40.46;100276.48;;;;-46
2020/03/11 01:08:14;;;;;;;0.70;0.70;;;;;;;19.61;40.50;100278.72;;;;-48
2020/03/11 01:11:14;;;;;;;0.87;0.87;;;;;;;19.58;40.53;100276.09;;;;-47
2020/03/11 01:14:14;;;;;;;0.91;0.87;;;;;;;19.59;40.53;100274.45;;;;-46
2020/03/11 01:17:14;;;;;;;0.71;0.71;;;;;;;19.57;40.51;100268.78;;;;-46
2020/03/11 01:20:14;;;;;;;0.85;0.85;;;;;;;19.56;40.51;100262.20;;;;-47
2020/03/11 01:23:14;;;;;;;0.80;0.80;;;;;;;19.55;40.46;100268.69;;;;-47
2020/03/11 01:26:14;;;;;;;0.90;0.90;;;;;;;19.53;40.47;100265.60;;;;-46
2020/03/11 01:29:14;;;;;;;0.81;0.81;;;;;;;19.53;40.47;100267.78;;;;-46
2020/03/11 01:32:14;;;;;;;0.81;0.81;;;;;;;19.52;40.46;100270.59;;;;-46
2020/03/11 01:35:14;;;;;;;0.69;0.69;;;;;;;19.51;40.58;100267.25;;;;-46
2020/03/11 01:38:14;;;;;;;0.70;0.70;;;;;;;19.50;40.53;100257.00;;;;-46
2020/03/11 01:41:14;;;;;;;0.54;0.54;;;;;;;19.49;40.59;100255.62;;;;-46
2020/03/11 01:44:14;;;;;;;0.70;0.70;;;;;;;19.48;40.53;100265.62;;;;-45
2020/03/11 01:47:14;;;;;;;0.79;0.79;;;;;;;19.47;40.52;100278.25;;;;-45
2020/03/11 01:50:14;;;;;;;0.69;0.69;;;;;;;19.46;40.56;100270.34;;;;-46
2020/03/11 01:53:14;;;;;;;0.81;0.81;;;;;;;19.45;40.59;100284.53;;;;-45
2020/03/11 01:56:14;;;;;;;0.74;0.74;;;;;;;19.44;40.65;100273.77;;;;-46
2020/03/11 01:59:14;;;;;;;0.80;0.80;;;;;;;19.43;40.62;100275.91;;;;-46
2020/03/11 02:02:14;;;;;;;0.71;0.71;;;;;;;19.42;40.59;100282.89;;;;-47
2020/03/11 02:05:14;;;;;;;0.79;0.79;;;;;;;19.40;40.63;100274.37;;;;-46
2020/03/11 02:08:14;;;;;;;0.75;0.75;;;;;;;19.39;40.62;100284.14;;;;-45
2020/03/11 02:11:14;;;;;;;0.70;0.70;;;;;;;19.39;40.63;100286.02;;;;-46
2020/03/11 02:14:14;;;;;;;0.72;0.72;;;;;;;19.38;40.65;100276.97;;;;-45
2020/03/11 02:17:14;;;;;;;0.70;0.70;;;;;;;19.37;40.60;100277.39;;;;-47
2020/03/11 02:20:14;;;;;;;0.70;0.70;;;;;;;19.35;40.71;100266.70;;;;-46
2020/03/11 02:23:14;;;;;;;0.58;0.58;;;;;;;19.34;40.72;100271.67;;;;-46
2020/03/11 02:26:14;;;;;;;0.85;0.85;;;;;;;19.33;40.67;100271.23;;;;-46
2020/03/11 02:29:14;;;;;;;0.97;0.97;;;;;;;19.32;40.70;100273.09;;;;-46
2020/03/11 02:32:14;;;;;;;0.80;0.80;;;;;;;19.32;40.70;100273.53;;;;-46
2020/03/11 02:35:14;;;;;;;0.71;0.71;;;;;;;19.31;40.68;100276.84;;;;-46
2020/03/11 02:38:14;;;;;;;0.77;0.77;;;;;;;19.31;40.75;100277.08;;;;-47
2020/03/11 02:41:14;;;;;;;0.80;0.80;;;;;;;19.30;40.75;100278.88;;;;-46
2020/03/11 02:44:14;;;;;;;0.81;0.81;;;;;;;19.28;40.66;100284.52;;;;-47
2020/03/11 02:47:14;;;;;;;0.79;0.79;;;;;;;19.28;40.74;100284.08;;;;-45
2020/03/11 02:50:14;;;;;;;0.73;0.73;;;;;;;19.27;40.71;100278.78;;;;-46
2020/03/11 02:53:14;;;;;;;0.79;0.79;;;;;;;19.26;40.71;100285.00;;;;-46
2020/03/11 02:56:14;;;;;;;0.69;0.69;;;;;;;19.25;40.70;100297.45;;;;-46
2020/03/11 02:59:14;;;;;;;0.80;0.80;;;;;;;19.25;40.74;100282.72;;;;-46
2020/03/11 03:02:13;;;;;;;0.80;0.80;;;;;;;19.24;40.77;100296.30;;;;-46
2020/03/11 03:05:14;;;;;;;0.80;0.80;;;;;;;19.23;40.67;100292.41;;;;-46
2020/03/11 03:08:14;;;;;;;0.71;0.71;;;;;;;19.22;40.69;100292.03;;;;-46
2020/03/11 03:11:14;;;;;;;0.80;0.80;;;;;;;19.21;40.76;100294.33;;;;-46
2020/03/11 03:14:14;;;;;;;0.71;0.71;;;;;;;19.21;40.73;100297.78;;;;-46
2020/03/11 03:17:22;;;;;;;0.90;0.90;;;;;;;19.20;40.70;100305.11;;;;-46
2020/03/11 03:20:14;;;;;;;0.71;0.71;;;;;;;19.19;40.72;100308.08;;;;-45
2020/03/11 03:23:14;;;;;;;0.77;0.77;;;;;;;19.19;40.71;100309.81;;;;-46
2020/03/11 03:26:14;;;;;;;0.70;0.70;;;;;;;19.18;40.73;100312.72;;;;-46
2020/03/11 03:29:14;;;;;;;0.70;0.70;;;;;;;19.17;40.70;100318.20;;;;-46
2020/03/11 03:32:14;;;;;;;0.81;0.81;;;;;;;19.17;40.74;100318.16;;;;-46
2020/03/11 03:35:14;;;;;;;0.77;0.77;;;;;;;19.15;40.77;100321.06;;;;-46
2020/03/11 03:38:14;;;;;;;0.70;0.70;;;;;;;19.15;40.74;100326.25;;;;-46
2020/03/11 03:41:14;;;;;;;0.69;0.69;;;;;;;19.14;40.77;100316.29;;;;-47
2020/03/11 03:44:14;;;;;;;0.88;0.88;;;;;;;19.14;40.75;100323.38;;;;-46
2020/03/11 03:47:14;;;;;;;0.80;0.80;;;;;;;19.14;40.75;100328.41;;;;-46
2020/03/11 03:50:14;;;;;;;0.63;0.63;;;;;;;19.12;40.78;100318.78;;;;-46
2020/03/11 03:53:13;;;;;;;0.61;0.61;;;;;;;19.11;40.77;100329.68;;;;-46
2020/03/11 03:56:14;;;;;;;0.70;0.70;;;;;;;19.11;40.74;100337.65;;;;-46
2020/03/11 03:59:14;;;;;;;0.70;0.70;;;;;;;19.11;40.71;100342.73;;;;-46
2020/03/11 04:02:14;;;;;;;0.75;0.75;;;;;;;19.09;40.78;100335.33;;;;-47
2020/03/11 04:05:14;;;;;;;0.70;0.70;;;;;;;19.09;40.80;100334.72;;;;-47
2020/03/11 04:08:14;;;;;;;0.65;0.65;;;;;;;19.07;40.75;100337.81;;;;-46
2020/03/11 04:11:14;;;;;;;0.71;0.71;;;;;;;19.07;40.79;100338.05;;;;-46
2020/03/11 04:14:14;;;;;;;0.80;0.80;;;;;;;19.07;40.80;100351.60;;;;-46
2020/03/11 04:17:14;;;;;;;0.69;0.69;;;;;;;19.06;40.77;100339.00;;;;-46
2020/03/11 04:20:14;;;;;;;0.61;0.61;;;;;;;19.06;40.75;100344.46;;;;-45
2020/03/11 04:23:14;;;;;;;0.71;0.71;;;;;;;19.05;40.79;100349.17;;;;-46
2020/03/11 04:26:14;;;;;;;0.66;0.66;;;;;;;19.04;40.82;100339.42;;;;-46
2020/03/11 04:29:14;;;;;;;0.76;0.76;;;;;;;19.04;40.84;100343.70;;;;-46
2020/03/11 04:32:14;;;;;;;0.81;0.81;;;;;;;19.03;40.81;100343.94;;;;-45
2020/03/11 04:35:14;;;;;;;0.63;0.63;;;;;;;19.03;40.83;100348.17;;;;-46
2020/03/11 04:38:14;;;;;;;0.68;0.68;;;;;;;19.02;40.88;100348.63;;;;-46
2020/03/11 04:41:14;;;;;;;0.72;0.72;;;;;;;19.01;40.85;100351.61;;;;-46
2020/03/11 04:44:14;;;;;;;0.65;0.65;;;;;;;19.01;40.84;100347.75;;;;-46
2020/03/11 04:47:14;;;;;;;0.60;0.60;;;;;;;19.01;40.86;100341.72;;;;-46
2020/03/11 04:50:14;;;;;;;0.61;0.61;;;;;;;19.00;40.85;100347.38;;;;-46
2020/03/11 04:53:14;;;;;;;0.73;0.73;;;;;;;19.00;40.84;100347.20;;;;-45
2020/03/11 04:56:14;;;;;;;0.60;0.60;;;;;;;18.99;40.86;100347.27;;;;-46
2020/03/11 04:59:14;;;;;;;0.60;0.60;;;;;;;18.99;40.86;100357.14;;;;-51
2020/03/11 05:02:14;;;;;;;0.70;0.70;;;;;;;18.98;40.85;100331.05;;;;-51
2020/03/11 05:05:14;;;;;;;0.70;0.70;;;;;;;18.98;40.89;100331.16;;;;-51
2020/03/11 05:08:14;;;;;;;0.69;0.69;;;;;;;18.98;40.83;100359.33;;;;-51
2020/03/11 05:11:14;;;;;;;0.61;0.61;;;;;;;18.96;40.83;100353.66;;;;-51
2020/03/11 05:14:14;;;;;;;0.73;0.73;;;;;;;18.96;40.88;100350.70;;;;-51
2020/03/11 05:17:14;;;;;;;0.68;0.68;;;;;;;18.96;40.86;100354.73;;;;-51
2020/03/11 05:20:14;;;;;;;0.76;0.76;;;;;;;18.96;40.85;100365.77;;;;-50
2020/03/11 05:23:14;;;;;;;0.63;0.63;;;;;;;18.96;40.83;100380.09;;;;-50
2020/03/11 05:26:14;;;;;;;0.53;0.53;;;;;;;18.95;40.88;100382.39;;;;-50
2020/03/11 05:29:14;;;;;;;0.60;0.60;;;;;;;18.94;40.90;100390.22;;;;-51
2020/03/11 05:32:14;;;;;;;0.67;0.67;;;;;;;18.94;40.88;100407.05;;;;-51
2020/03/11 05:35:14;;;;;;;0.61;0.61;;;;;;;18.94;40.89;100403.83;;;;-51
2020/03/11 05:38:14;;;;;;;0.63;0.63;;;;;;;18.93;40.89;100401.88;;;;-50
2020/03/11 05:41:14;;;;;;;0.60;0.60;;;;;;;18.93;40.91;100392.24;;;;-51
2020/03/11 05:44:14;;;;;;;0.57;0.57;;;;;;;18.92;40.92;100398.92;;;;-51
2020/03/11 05:47:14;;;;;;;0.61;0.61;;;;;;;18.91;40.93;100390.52;;;;-51
2020/03/11 05:50:14;;;;;;;0.77;0.69;;;;;;;18.91;41.03;100389.67;;;;-50
2020/03/11 05:53:14;;;;;;;0.61;0.61;;;;;;;18.90;41.14;100385.68;;;;-50
2020/03/11 05:56:14;;;;;;;0.68;0.68;;;;;;;18.90;41.09;100388.80;;;;-50
2020/03/11 05:59:14;;;;;;;0.62;0.62;;;;;;;18.90;41.10;100388.63;;;;-51
2020/03/11 06:02:14;;;;;;;0.63;0.63;;;;;;;18.90;41.02;100391.88;;;;-50
2020/03/11 06:05:14;;;;;;;0.70;0.70;;;;;;;18.89;41.02;100389.55;;;;-50
2020/03/11 06:08:14;;;;;;;0.70;0.70;;;;;;;18.89;41.04;100386.98;;;;-50
2020/03/11 06:11:13;;;;;;;0.71;0.71;;;;;;;18.89;41.04;100404.31;;;;-51
2020/03/11 06:14:13;;;;;;;0.56;0.56;;;;;;;18.87;41.05;100401.38;;;;-51
2020/03/11 06:17:14;;;;;;;0.60;0.60;;;;;;;18.87;41.06;100409.47;;;;-51
2020/03/11 06:20:14;;;;;;;0.67;0.67;;;;;;;18.87;41.01;100422.59;;;;-50
2020/03/11 06:23:13;;;;;;;0.69;0.66;;;;;;;18.86;41.01;100429.61;;;;-50
2020/03/11 06:26:13;;;;;;;0.81;0.81;;;;;;;18.86;41.01;100427.33;;;;-50
2020/03/11 06:29:13;;;;;;;0.59;0.52;;;;;;;18.85;41.05;100415.78;;;;-51
2020/03/11 06:32:13;;;;;;;0.66;0.66;;;;;;;18.85;41.00;100419.81;;;;-51
2020/03/11 06:35:13;;;;;;;0.60;0.60;;;;;;;18.85;41.00;100427.17;;;;-51
2020/03/11 06:38:13;;;;;;;0.61;0.61;;;;;;;18.84;41.00;100423.83;;;;-51
2020/03/11 06:41:13;;;;;;;0.69;0.69;;;;;;;18.83;41.01;100425.28;;;;-51
2020/03/11 06:44:13;;;;;;;0.70;0.70;;;;;;;18.83;41.01;100436.83;;;;-51
2020/03/11 06:47:13;;;;;;;0.70;0.70;;;;;;;18.82;41.09;100439.23;;;;-51
2020/03/11 06:50:13;;;;;;;0.95;0.58;;;;;;;18.82;41.06;100436.72;;;;-50
2020/03/11 06:53:13;;;;;;;0.61;0.61;;;;;;;18.82;41.07;100439.63;;;;-50
2020/03/11 06:56:14;;;;;;;0.60;0.60;;;;;;;18.82;41.05;100447.45;;;;-51
2020/03/11 06:59:13;;;;;;;0.70;0.70;;;;;;;18.82;41.04;100457.70;;;;-51
2020/03/11 07:02:13;;;;;;;0.61;0.61;;;;;;;18.82;41.04;100463.39;;;;-50
2020/03/11 07:05:13;;;;;;;0.64;0.64;;;;;;;18.81;41.03;100471.48;;;;-50
2020/03/11 07:08:13;;;;;;;0.61;0.61;;;;;;;18.81;41.01;100468.69;;;;-51
2020/03/11 07:11:13;;;;;;;0.70;0.60;;;;;;;18.81;40.99;100473.67;;;;-51
2020/03/11 07:14:13;;;;;;;0.68;0.68;;;;;;;18.81;41.00;100471.50;;;;-51
2020/03/11 07:17:13;;;;;;;0.50;0.50;;;;;;;18.80;41.01;100466.47;;;;-51
2020/03/11 07:20:13;;;;;;;0.69;0.69;;;;;;;18.80;40.96;100466.91;;;;-51
2020/03/11 07:23:13;;;;;;;0.70;0.70;;;;;;;18.80;41.01;100462.69;;;;-51
2020/03/11 07:26:14;;;;;;;0.67;0.67;;;;;;;18.80;40.97;100468.64;;;;-50
2020/03/11 07:29:13;;;;;;;0.69;0.69;;;;;;;18.78;40.95;100463.97;;;;-51
2020/03/11 07:32:13;;;;;;;0.65;0.65;;;;;;;18.78;40.99;100466.65;;;;-50
2020/03/11 07:35:13;;;;;;;0.65;0.65;;;;;;;18.78;40.98;100459.17;;;;-50
2020/03/11 07:38:13;;;;;;;0.68;0.68;;;;;;;18.77;40.94;100459.07;;;;-51
2020/03/11 07:41:13;;;;;;;0.60;0.60;;;;;;;18.77;41.01;100463.09;;;;-51
2020/03/11 07:44:13;;;;;;;0.67;0.67;;;;;;;18.76;41.30;100477.66;;;;-56
2020/03/11 07:47:14;;;;;;;1.13;0.71;;;;;;;18.78;41.43;100476.58;;;;-52
2020/03/11 07:50:13;;;;;;;1.51;0.80;;;;;;;18.80;41.31;100485.21;;;;-51
2020/03/11 07:53:13;;;;;;;1.89;0.70;;;;;;;18.79;41.29;100493.53;;;;-48
2020/03/11 07:56:13;;;;;;;0.70;0.70;;;;;;;18.78;41.23;100493.42;;;;-58
2020/03/11 07:59:14;;;;;;;0.57;0.57;;;;;;;18.79;41.24;100494.53;;;;-58
2020/03/11 08:02:13;;;;;;;1.88;0.75;;;;;;;18.78;41.19;100486.28;;;;-58
2020/03/11 08:05:13;;;;;;;0.67;0.67;;;;;;;18.77;41.18;100488.41;;;;-59
2020/03/11 08:08:13;;;;;;;0.63;0.61;;;;;;;18.77;41.18;100488.64;;;;-58
2020/03/11 08:11:13;;;;;;;0.67;0.66;;;;;;;18.76;41.17;100494.72;;;;-59
2020/03/11 08:14:13;;;;;;;0.71;0.70;;;;;;;18.76;41.14;100491.94;;;;-59
2020/03/11 08:17:14;;;;;;;0.69;0.69;;;;;;;18.76;41.19;100500.64;;;;-61
2020/03/11 08:20:13;;;;;;;0.65;0.65;;;;;;;18.75;41.18;100503.54;;;;-58
2020/03/11 08:23:13;;;;;;;1.52;0.71;;;;;;;18.75;41.13;100504.70;;;;-58
2020/03/11 08:26:13;;;;;;;0.83;0.67;;;;;;;18.75;41.15;100502.44;;;;-58
2020/03/11 08:29:13;;;;;;;0.70;0.70;;;;;;;18.75;41.10;100512.64;;;;-60
2020/03/11 08:32:13;;;;;;;0.69;0.69;;;;;;;18.74;41.09;100504.10;;;;-59
2020/03/11 08:35:13;;;;;;;0.63;0.63;;;;;;;18.74;41.11;100504.60;;;;-61
2020/03/11 08:38:13;;;;;;;0.66;0.66;;;;;;;18.74;41.13;100510.25;;;;-60
2020/03/11 08:41:13;;;;;;;0.70;0.70;;;;;;;18.74;41.20;100507.91;;;;-60
2020/03/11 08:44:13;;;;;;;0.65;0.65;;;;;;;18.73;41.13;100501.67;;;;-58
2020/03/11 08:47:14;;;;;;;0.61;0.61;;;;;;;18.72;41.10;100503.39;;;;-58
2020/03/11 08:50:13;;;;;;;0.62;0.62;;;;;;;18.72;41.14;100510.70;;;;-58
2020/03/11 08:53:13;;;;;;;0.70;0.70;;;;;;;18.73;41.13;100516.83;;;;-60
2020/03/11 08:56:13;;;;;;;0.57;0.57;;;;;;;18.72;41.17;100517.55;;;;-60
2020/03/11 08:59:13;;;;;;;0.63;0.63;;;;;;;18.72;41.13;100510.42;;;;-57
2020/03/11 09:02:13;;;;;;;4.59;0.76;;;;;;;18.71;42.43;100529.61;;;;-54
2020/03/11 09:05:13;;;;;;;0.85;0.81;;;;;;;18.70;43.07;100523.88;;;;-56
2020/03/11 09:08:13;;;;;;;1.43;0.90;;;;;;;18.70;43.46;100538.59;;;;-56
2020/03/11 09:11:13;;;;;;;0.80;0.80;;;;;;;18.67;44.35;100536.95;;;;-57
2020/03/11 09:14:13;;;;;;;1.05;0.79;;;;;;;18.64;44.75;100537.63;;;;-51
2020/03/11 09:17:13;;;;;;;1.09;0.93;;;;;;;18.68;44.94;100548.20;;;;-54
2020/03/11 09:20:13;;;;;;;1.05;0.93;;;;;;;18.69;44.21;100548.19;;;;-54
2020/03/11 09:23:13;;;;;;;2.28;0.90;;;;;;;18.72;44.04;100546.05;;;;-54
2020/03/11 09:26:14;;;;;;;0.89;0.80;;;;;;;18.72;43.78;100550.34;;;;-54
2020/03/11 09:29:13;;;;;;;2.37;0.75;;;;;;;18.73;43.63;100548.77;;;;-54
2020/03/11 09:32:13;;;;;;;9.89;0.95;;;;;;;18.72;43.43;100564.06;;;;-54
2020/03/11 09:35:13;;;;;;;1.01;0.83;;;;;;;18.72;43.26;100553.65;;;;-53
2020/03/11 09:38:13;;;;;;;0.79;0.79;;;;;;;18.72;43.13;100560.61;;;;-54
2020/03/11 09:41:13;;;;;;;0.97;0.90;;;;;;;18.73;42.97;100561.48;;;;-54
2020/03/11 09:44:13;;;;;;;1.51;0.97;;;;;;;18.72;42.90;100557.16;;;;-54
2020/03/11 09:47:13;;;;;;;1.37;0.73;;;;;;;18.72;42.81;100554.19;;;;-54
2020/03/11 09:50:13;;;;;;;0.85;0.83;;;;;;;18.71;42.73;100549.02;;;;-55
2020/03/11 09:53:13;;;;;;;0.81;0.80;;;;;;;18.70;42.65;100546.05;;;;-55
2020/03/11 09:56:13;;;;;;;0.89;0.86;;;;;;;18.70;42.57;100549.98;;;;-55
2020/03/11 09:59:13;;;;;;;1.00;0.75;;;;;;;18.70;42.48;100545.89;;;;-55
2020/03/11 10:02:13;;;;;;;0.79;0.79;;;;;;;18.70;42.45;100544.28;;;;-54
2020/03/11 10:05:13;;;;;;;0.87;0.87;;;;;;;18.70;42.39;100547.12;;;;-55
2020/03/11 10:08:13;;;;;;;0.91;0.89;;;;;;;18.69;42.34;100545.17;;;;-55
2020/03/11 10:11:13;;;;;;;0.90;0.80;;;;;;;18.69;42.30;100546.08;;;;-54
2020/03/11 10:14:13;;;;;;;0.91;0.91;;;;;;;18.69;42.27;100536.87;;;;-55
2020/03/11 10:17:13;;;;;;;0.74;0.73;;;;;;;18.68;42.23;100537.77;;;;-54
2020/03/11 10:20:13;;;;;;;0.80;0.80;;;;;;;18.67;42.23;100535.11;;;;-52
2020/03/11 10:23:13;;;;;;;0.81;0.81;;;;;;;18.67;42.22;100537.27;;;;-52
2020/03/11 10:26:13;;;;;;;0.80;0.80;;;;;;;18.67;42.20;100538.39;;;;-52
2020/03/11 10:29:13;;;;;;;1.25;0.89;;;;;;;18.67;42.14;100547.31;;;;-52
2020/03/11 10:32:14;;;;;;;0.80;0.80;;;;;;;18.66;42.13;100540.84;;;;-52
2020/03/11 10:35:14;;;;;;;1.29;0.93;;;;;;;18.66;42.07;100541.74;;;;-52
2020/03/11 10:38:13;;;;;;;0.76;0.76;;;;;;;18.65;42.08;100545.98;;;;-52
2020/03/11 10:41:13;;;;;;;0.79;0.79;;;;;;;18.66;42.07;100546.09;;;;-52
2020/03/11 10:44:13;;;;;;;0.80;0.80;;;;;;;18.65;42.07;100551.39;;;;-52
2020/03/11 10:47:13;;;;;;;0.87;0.81;;;;;;;18.65;42.01;100549.83;;;;-52
2020/03/11 10:50:16;;;;;;;0.73;0.73;;;;;;;18.64;41.99;100557.81;;;;-52
2020/03/11 10:53:15;;;;;;;0.74;0.74;;;;;;;18.64;41.99;100557.38;;;;-52
2020/03/11 10:56:13;;;;;;;0.71;0.71;;;;;;;18.64;41.97;100567.67;;;;-52
2020/03/11 10:59:13;;;;;;;0.89;0.87;;;;;;;18.64;41.97;100571.75;;;;-52
2020/03/11 11:02:13;;;;;;;0.80;0.80;;;;;;;18.63;41.95;100573.55;;;;-52
2020/03/11 11:05:13;;;;;;;0.70;0.70;;;;;;;18.63;41.90;100571.14;;;;-52
2020/03/11 11:08:13;;;;;;;0.78;0.77;;;;;;;18.62;41.89;100568.52;;;;-54
2020/03/11 11:11:13;;;;;;;0.83;0.80;;;;;;;18.62;41.89;100567.14;;;;-54
2020/03/11 11:14:13;;;;;;;0.71;0.71;;;;;;;18.61;41.86;100564.02;;;;-54
2020/03/11 11:17:14;;;;;;;1.78;0.82;;;;;;;18.61;41.85;100551.81;;;;-54
2020/03/11 11:20:13;;;;;;;0.63;0.63;;;;;;;18.61;41.88;100564.85;;;;-54
2020/03/11 11:23:13;;;;;;;0.82;0.82;;;;;;;18.61;41.88;100566.52;;;;-54
2020/03/11 11:26:14;;;;;;;0.83;0.83;;;;;;;18.60;41.86;100561.19;;;;-54
2020/03/11 11:29:13;;;;;;;0.86;0.86;;;;;;;18.60;41.85;100560.45;;;;-54
2020/03/11 11:32:13;;;;;;;0.72;0.72;;;;;;;18.59;41.86;100558.33;;;;-54
2020/03/11 11:35:13;;;;;;;0.83;0.79;;;;;;;18.59;41.84;100549.63;;;;-53
2020/03/11 11:38:13;;;;;;;1.04;0.80;;;;;;;18.59;41.81;100552.88;;;;-53
2020/03/11 11:41:13;;;;;;;0.83;0.81;;;;;;;18.58;41.80;100552.43;;;;-54
2020/03/11 11:44:13;;;;;;;0.64;0.64;;;;;;;18.58;41.80;100552.77;;;;-54
2020/03/11 11:47:13;;;;;;;1.15;0.73;;;;;;;18.58;41.79;100553.09;;;;-54
2020/03/11 11:50:13;;;;;;;0.81;0.81;;;;;;;18.58;41.77;100549.65;;;;-54
2020/03/11 11:53:13;;;;;;;0.72;0.72;;;;;;;18.58;41.81;100557.28;;;;-54
2020/03/11 11:56:13;;;;;;;0.69;0.69;;;;;;;18.57;41.77;100547.53;;;;-53
2020/03/11 11:59:13;;;;;;;0.95;0.89;;;;;;;18.57;41.79;100553.55;;;;-53
2020/03/11 12:02:13;;;;;;;0.70;0.70;;;;;;;18.56;41.77;100546.98;;;;-54
2020/03/11 12:05:13;;;;;;;0.80;0.80;;;;;;;18.55;41.77;100542.08;;;;-53
2020/03/11 12:08:13;;;;;;;0.79;0.79;;;;;;;18.56;41.78;100537.84;;;;-53
2020/03/11 12:11:14;;;;;;;0.94;0.92;;;;;;;18.56;41.78;100538.07;;;;-53
2020/03/11 12:14:13;;;;;;;0.65;0.65;;;;;;;18.56;41.75;100543.69;;;;-53
2020/03/11 12:17:13;;;;;;;0.87;0.82;;;;;;;18.56;41.76;100544.77;;;;-54
2020/03/11 12:20:14;;;;;;;0.91;0.75;;;;;;;18.56;41.76;100543.02;;;;-54
2020/03/11 12:23:13;;;;;;;0.79;0.79;;;;;;;18.55;41.76;100544.55;;;;-54
2020/03/11 12:26:14;;;;;;;0.61;0.61;;;;;;;18.55;41.72;100543.20;;;;-54
2020/03/11 12:29:13;;;;;;;0.67;0.67;;;;;;;18.54;41.77;100539.75;;;;-54
2020/03/11 12:32:14;;;;;;;1.73;0.79;;;;;;;18.54;41.75;100542.76;;;;-52
2020/03/11 12:35:13;;;;;;;1.13;0.82;;;;;;;18.54;41.74;100540.81;;;;-52
2020/03/11 12:38:13;;;;;;;0.75;0.75;;;;;;;18.53;41.72;100534.08;;;;-52
2020/03/11 12:41:13;;;;;;;0.79;0.79;;;;;;;18.53;41.74;100529.66;;;;-52
2020/03/11 12:44:13;;;;;;;0.70;0.70;;;;;;;18.53;41.72;100527.31;;;;-52
2020/03/11 12:47:13;;;;;;;0.73;0.73;;;;;;;18.53;41.73;100525.15;;;;-52
2020/03/11 12:50:13;;;;;;;1.24;0.71;;;;;;;18.52;41.75;100522.70;;;;-52
2020/03/11 12:53:13;;;;;;;0.78;0.78;;;;;;;18.52;41.72;100516.01;;;;-52
2020/03/11 12:56:13;;;;;;;0.70;0.70;;;;;;;18.52;41.70;100520.42;;;;-52
2020/03/11 12:59:14;;;;;;;0.67;0.67;;;;;;;18.52;41.75;100521.58;;;;-54
2020/03/11 13:02:13;;;;;;;0.76;0.76;;;;;;;18.51;41.70;100521.64;;;;-54
2020/03/11 13:05:13;;;;;;;0.67;0.67;;;;;;;18.51;41.72;100520.87;;;;-54
2020/03/11 13:08:13;;;;;;;0.73;0.73;;;;;;;18.51;41.70;100521.87;;;;-54
2020/03/11 13:11:13;;;;;;;0.67;0.67;;;;;;;18.50;41.74;100525.66;;;;-54
2020/03/11 13:14:13;;;;;;;0.71;0.71;;;;;;;18.50;41.76;100525.00;;;;-54
2020/03/11 13:17:13;;;;;;;0.76;0.76;;;;;;;18.50;41.70;100527.50;;;;-54
2020/03/11 13:20:13;;;;;;;0.72;0.71;;;;;;;18.50;41.69;100528.00;;;;-54
2020/03/11 13:23:13;;;;;;;0.70;0.70;;;;;;;18.50;41.73;100521.89;;;;-52
2020/03/11 13:26:13;;;;;;;0.87;0.76;;;;;;;18.49;41.70;100520.93;;;;-52
2020/03/11 13:29:13;;;;;;;0.70;0.70;;;;;;;18.49;41.68;100524.28;;;;-51
2020/03/11 13:32:14;;;;;;;0.72;0.72;;;;;;;18.49;41.68;100523.67;;;;-52
2020/03/11 13:35:13;;;;;;;0.73;0.70;;;;;;;18.48;41.72;100522.39;;;;-52
2020/03/11 13:38:14;;;;;;;0.69;0.69;;;;;;;18.47;41.71;100523.28;;;;-52
2020/03/11 13:41:14;;;;;;;0.72;0.72;;;;;;;18.47;41.72;100520.95;;;;-52
2020/03/11 13:44:13;;;;;;;0.70;0.70;;;;;;;18.48;41.73;100514.53;;;;-52
2020/03/11 13:47:13;;;;;;;0.67;0.67;;;;;;;18.47;41.73;100509.74;;;;-52
2020/03/11 13:50:13;;;;;;;0.78;0.78;;;;;;;18.48;41.68;100513.80;;;;-52
2020/03/11 13:53:13;;;;;;;0.61;0.61;;;;;;;18.47;41.75;100507.45;;;;-52
2020/03/11 13:56:13;;;;;;;0.71;0.71;;;;;;;18.46;41.74;100505.23;;;;-52
2020/03/11 13:59:13;;;;;;;0.80;0.80;;;;;;;18.46;41.74;100514.20;;;;-52
2020/03/11 14:02:13;;;;;;;0.77;0.77;;;;;;;18.46;41.73;100497.87;;;;-52
2020/03/11 14:05:13;;;;;;;0.70;0.70;;;;;;;18.45;41.70;100499.27;;;;-52
2020/03/11 14:08:13;;;;;;;0.71;0.71;;;;;;;18.45;41.73;100513.38;;;;-51
2020/03/11 14:11:13;;;;;;;0.79;0.79;;;;;;;18.45;41.69;100515.39;;;;-52
2020/03/11 14:14:13;;;;;;;0.77;0.77;;;;;;;18.44;41.71;100516.61;;;;-52
2020/03/11 14:17:13;;;;;;;0.73;0.73;;;;;;;18.45;41.69;100520.39;;;;-52
2020/03/11 14:20:13;;;;;;;0.72;0.72;;;;;;;18.44;41.70;100521.52;;;;-52
2020/03/11 14:23:13;;;;;;;0.62;0.62;;;;;;;18.43;41.72;100523.92;;;;-52
2020/03/11 14:26:13;;;;;;;0.71;0.71;;;;;;;18.43;41.77;100514.95;;;;-52
2020/03/11 14:29:14;;;;;;;0.80;0.80;;;;;;;18.43;41.74;100515.63;;;;-52
2020/03/11 14:32:13;;;;;;;0.59;0.59;;;;;;;18.43;41.71;100523.25;;;;-52
2020/03/11 14:35:13;;;;;;;0.75;0.72;;;;;;;18.43;41.71;100519.47;;;;-52
2020/03/11 14:38:13;;;;;;;0.61;0.61;;;;;;;18.43;41.74;100517.06;;;;-52
2020/03/11 14:41:13;;;;;;;0.72;0.60;;;;;;;18.43;41.72;100515.61;;;;-52
2020/03/11 14:44:13;;;;;;;0.74;0.74;;;;;;;18.42;41.75;100516.84;;;;-52
2020/03/11 14:47:13;;;;;;;0.68;0.68;;;;;;;18.41;41.68;100516.97;;;;-52
2020/03/11 14:50:13;;;;;;;0.69;0.69;;;;;;;18.41;41.75;100519.20;;;;-52
2020/03/11 14:53:13;;;;;;;0.60;0.60;;;;;;;18.42;41.71;100523.26;;;;-52
2020/03/11 14:56:13;;;;;;;0.78;0.76;;;;;;;18.41;41.71;100520.55;;;;-52
2020/03/11 14:59:13;;;;;;;0.70;0.70;;;;;;;18.41;41.77;100521.98;;;;-52
2020/03/11 15:02:13;;;;;;;1.01;0.63;;;;;;;18.40;41.72;100518.59;;;;-52
2020/03/11 15:05:13;;;;;;;0.60;0.60;;;;;;;18.41;41.73;100514.11;;;;-52
2020/03/11 15:08:13;;;;;;;0.87;0.87;;;;;;;18.41;41.69;100521.98;;;;-52
2020/03/11 15:11:13;;;;;;;0.66;0.66;;;;;;;18.40;41.70;100526.95;;;;-52
2020/03/11 15:14:13;;;;;;;0.59;0.59;;;;;;;18.41;41.67;100524.72;;;;-52
2020/03/11 15:17:13;;;;;;;0.77;0.77;;;;;;;18.40;41.68;100520.94;;;;-52
2020/03/11 15:20:13;;;;;;;0.77;0.77;;;;;;;18.40;41.69;100519.93;;;;-52
2020/03/11 15:23:14;;;;;;;0.63;0.60;;;;;;;18.40;41.68;100512.80;;;;-52
2020/03/11 15:26:13;;;;;;;0.69;0.69;;;;;;;18.40;41.71;100510.95;;;;-52
2020/03/11 15:29:13;;;;;;;0.62;0.62;;;;;;;18.39;41.68;100520.72;;;;-52
2020/03/11 15:32:13;;;;;;;0.68;0.68;;;;;;;18.39;41.70;100525.39;;;;-52
2020/03/11 15:35:13;;;;;;;1.37;0.89;;;;;;;18.41;41.74;100524.39;;;;-52
2020/03/11 15:38:13;;;;;;;0.78;0.78;;;;;;;18.41;41.87;100520.37;;;;-52
2020/03/11 15:41:13;;;;;;;0.78;0.78;;;;;;;18.40;41.83;100525.34;;;;-53
2020/03/11 15:44:13;;;;;;;1.66;0.80;;;;;;;18.40;41.84;100526.17;;;;-54
2020/03/11 15:47:13;;;;;;;0.78;0.78;;;;;;;18.39;41.81;100522.05;;;;-54
2020/03/11 15:50:13;;;;;;;1.69;0.85;;;;;;;18.40;41.81;100529.80;;;;-54
2020/03/11 15:53:13;;;;;;;0.71;0.71;;;;;;;18.40;41.89;100531.19;;;;-54
2020/03/11 15:56:13;;;;;;;1.49;0.84;;;;;;;18.39;41.92;100538.77;;;;-54
2020/03/11 15:59:13;;;;;;;0.82;0.82;;;;;;;18.39;41.84;100530.57;;;;-53
2020/03/11 16:02:14;;;;;;;0.75;0.75;;;;;;;18.39;41.90;100531.64;;;;-54
2020/03/11 16:05:13;;;;;;;1.41;0.73;;;;;;;18.39;41.89;100541.11;;;;-54
2020/03/11 16:08:14;;;;;;;0.65;0.65;;;;;;;18.38;41.84;100546.17;;;;-54
2020/03/11 16:11:13;;;;;;;0.73;0.73;;;;;;;18.38;41.84;100539.38;;;;-53
2020/03/11 16:14:13;;;;;;;0.80;0.80;;;;;;;18.37;41.82;100536.00;;;;-53
2020/03/11 16:17:13;;;;;;;0.70;0.70;;;;;;;18.37;41.83;100537.67;;;;-53
2020/03/11 16:20:13;;;;;;;0.69;0.67;;;;;;;18.37;41.82;100533.15;;;;-54
2020/03/11 16:23:13;;;;;;;0.67;0.67;;;;;;;18.37;41.83;100538.00;;;;-53
2020/03/11 16:26:13;;;;;;;0.70;0.70;;;;;;;18.36;41.81;100534.61;;;;-54
2020/03/11 16:29:13;;;;;;;0.69;0.69;;;;;;;18.37;41.79;100535.59;;;;-54
2020/03/11 16:32:13;;;;;;;0.67;0.67;;;;;;;18.37;41.76;100532.14;;;;-53
2020/03/11 16:35:13;;;;;;;0.73;0.73;;;;;;;18.36;41.79;100533.33;;;;-53
2020/03/11 16:38:13;;;;;;;0.73;0.73;;;;;;;18.36;41.83;100533.27;;;;-53
2020/03/11 16:41:14;;;;;;;0.93;0.77;;;;;;;18.35;41.79;100531.88;;;;-54
2020/03/11 16:44:13;;;;;;;0.78;0.78;;;;;;;18.35;41.76;100542.41;;;;-53
2020/03/11 16:47:13;;;;;;;0.76;0.76;;;;;;;18.35;41.74;100543.85;;;;-54